Time;durP1;ratioP1;P1;durP2;ratioP2;P2;SDS_P1;SDS_P2;PMS_P1;PMS_P2;Temp;Humidity;BMP_temperature;BMP_pressure;BME280_temperature;BME280_humidity;BME280_pressure;Samples;Min_cycle;Max_cycle;Signal;HPM_P1;HPM_P2
2023/07/12 00:02:07;;;;;;;16.30;15.30;;;;;;;22.74;45.85;99855.56;4821232;29;98327;-74
2023/07/12 00:04:33;;;;;;;16.50;15.40;;;;;;;22.77;45.68;99854.44;4820738;29;97156;-73
2023/07/12 00:06:58;;;;;;;17.35;15.82;;;;;;;22.81;45.73;99843.31;4821905;29;96887;-73
2023/07/12 00:09:24;;;;;;;16.58;15.27;;;;;;;22.85;45.68;99838.53;4820544;29;98918;-74
2023/07/12 00:11:50;;;;;;;17.70;16.48;;;;;;;22.89;45.48;99836.41;4827901;29;98442;-73
2023/07/12 00:14:15;;;;;;;18.42;15.68;;;;;;;22.87;45.48;99841.06;4826913;29;96706;-73
2023/07/12 00:16:41;;;;;;;16.42;14.82;;;;;;;22.65;46.22;99836.84;4820965;29;97011;-73
2023/07/12 00:19:12;;;;;;;17.40;16.10;;;;;;;22.68;45.89;99828.53;4820967;29;98778;-73
2023/07/12 00:21:37;;;;;;;;;;;;;;;22.73;45.74;99835.16;4835286;29;98491;-73
2023/07/12 00:24:03;;;;;;;17.98;16.63;;;;;;;22.80;45.67;99838.94;4820985;29;96711;-73
2023/07/12 00:26:34;;;;;;;16.42;15.07;;;;;;;22.75;45.88;99838.53;4820539;29;96874;-73
2023/07/12 00:29:01;;;;;;;17.05;15.80;;;;;;;22.49;46.46;99813.38;4821206;29;99573;-73
2023/07/12 00:31:26;;;;;;;17.23;15.55;;;;;;;22.26;47.09;99808.28;4833581;29;98514;-73
2023/07/12 00:33:52;;;;;;;17.40;16.02;;;;;;;22.16;47.34;99807.38;4820971;29;98440;-73
2023/07/12 00:36:22;;;;;;;17.00;15.90;;;;;;;21.82;48.33;99809.59;4820152;29;96844;-74
2023/07/12 00:38:48;;;;;;;18.02;15.77;;;;;;;21.95;47.92;99814.66;4820211;29;98794;-73
2023/07/12 00:41:42;;;;;;;17.08;15.93;;;;;;;21.92;48.10;99818.47;4803344;29;100001;-73
2023/07/12 00:44:11;;;;;;;18.02;16.70;;;;;;;21.83;48.12;99811.28;4823440;29;97817;-73
2023/07/12 00:46:42;;;;;;;18.33;16.63;;;;;;;21.74;48.43;99807.59;4822283;29;97390;-73
2023/07/12 00:49:11;;;;;;;17.42;16.15;;;;;;;21.78;48.46;99803.66;4834762;29;98628;-73
2023/07/12 00:51:58;;;;;;;17.75;16.45;;;;;;;21.77;48.33;99804.63;4819873;29;98345;-73
2023/07/12 00:54:26;;;;;;;16.15;14.77;;;;;;;21.81;48.30;99795.38;4825606;29;96962;-73
2023/07/12 00:56:51;;;;;;;18.55;17.15;;;;;;;21.82;48.14;99790.88;4828680;29;96974;-73
2023/07/12 00:59:25;;;;;;;17.08;15.68;;;;;;;21.88;48.36;99787.66;4833295;29;97513;-73
2023/07/12 01:01:53;;;;;;;17.48;16.27;;;;;;;22.03;47.64;99778.25;4820333;29;98592;-73
2023/07/12 01:04:26;;;;;;;16.85;15.75;;;;;;;22.07;47.61;99778.81;4815468;29;96815;-73
2023/07/12 01:06:52;;;;;;;18.00;16.50;;;;;;;22.05;47.76;99772.75;4804468;29;96759;-73
2023/07/12 01:09:19;;;;;;;17.48;16.08;;;;;;;22.05;47.67;99772.75;4803101;29;100211;-73
2023/07/12 01:11:45;;;;;;;19.40;17.73;;;;;;;22.09;47.74;99768.84;4803175;29;98586;-73
2023/07/12 01:14:17;;;;;;;16.88;15.60;;;;;;;22.15;47.55;99765.63;4832650;29;97990;-73
2023/07/12 01:16:46;;;;;;;18.05;16.75;;;;;;;22.07;47.70;99766.28;4820654;29;96812;-73
2023/07/12 01:19:12;;;;;;;17.77;16.30;;;;;;;21.84;48.44;99757.69;4834338;29;98766;-74
2023/07/12 01:21:41;;;;;;;16.80;15.57;;;;;;;21.40;49.50;99758.97;4832764;29;98329;-73
2023/07/12 01:24:07;;;;;;;17.48;16.17;;;;;;;21.32;49.55;99751.63;4802486;29;98360;-73
2023/07/12 01:26:36;;;;;;;17.10;15.68;;;;;;;21.44;49.31;99747.06;4820065;29;96855;-73
2023/07/12 01:29:04;;;;;;;17.33;15.82;;;;;;;21.55;49.08;99743.44;4819626;29;98713;-73
2023/07/12 01:31:31;;;;;;;17.80;16.40;;;;;;;21.28;49.73;99744.84;4826170;29;100114;-73
2023/07/12 01:33:57;;;;;;;17.33;15.82;;;;;;;21.25;49.64;99742.47;4825224;29;96608;-73
2023/07/12 01:36:26;;;;;;;17.00;15.65;;;;;;;21.30;49.81;99736.72;4833921;29;96769;-73
2023/07/12 01:38:55;;;;;;;17.23;16.05;;;;;;;21.32;49.64;99716.94;4838634;29;98565;-73
2023/07/12 01:41:22;;;;;;;17.73;16.55;;;;;;;21.40;49.47;99713.59;4819075;29;97192;-73
2023/07/12 01:43:48;;;;;;;17.85;16.52;;;;;;;21.34;49.56;99722.97;4820238;29;96624;-73
2023/07/12 01:46:14;;;;;;;17.45;15.90;;;;;;;21.24;49.76;99711.44;4836689;29;96800;-73
2023/07/12 01:48:39;;;;;;;18.38;16.98;;;;;;;21.27;50.00;99715.66;4828930;29;98699;-73
2023/07/12 01:51:05;;;;;;;18.85;16.80;;;;;;;21.28;49.85;99712.84;4819139;29;98478;-73
2023/07/12 01:53:33;;;;;;;16.17;14.98;;;;;;;21.31;49.53;99699.22;4818097;29;96723;-73
2023/07/12 01:55:59;;;;;;;19.67;17.70;;;;;;;21.30;49.65;99712.72;4819547;29;96848;-73
2023/07/12 01:58:25;;;;;;;18.23;16.08;;;;;;;21.32;49.78;99708.94;4802580;29;100397;-73
2023/07/12 02:00:51;;;;;;;18.13;16.73;;;;;;;21.20;49.99;99707.31;4802329;29;100458;-73
2023/07/12 02:03:17;;;;;;;17.52;16.25;;;;;;;21.13;50.15;99701.69;4819653;29;97689;-73
2023/07/12 02:05:43;;;;;;;17.83;16.23;;;;;;;21.07;50.47;99699.56;4819308;29;96825;-74
2023/07/12 02:08:09;;;;;;;18.92;17.23;;;;;;;20.90;50.79;99687.69;4812176;29;97879;-74
2023/07/12 02:10:35;;;;;;;18.45;16.60;;;;;;;20.87;51.02;99669.28;4826579;29;98271;-72
2023/07/12 02:13:01;;;;;;;17.40;16.17;;;;;;;21.11;50.31;99671.63;4833797;29;96642;-73
2023/07/12 02:15:27;;;;;;;17.55;16.20;;;;;;;21.22;50.10;99668.84;4819106;29;96873;-73
2023/07/12 02:17:53;;;;;;;18.08;16.90;;;;;;;20.91;50.92;99665.34;4831808;29;98882;-74
2023/07/12 02:20:18;;;;;;;17.42;16.33;;;;;;;21.11;50.44;99668.09;4818983;29;98806;-74
2023/07/12 02:22:46;;;;;;;17.63;16.52;;;;;;;21.10;50.51;99659.25;4832178;29;96731;-73
2023/07/12 02:25:17;;;;;;;17.42;15.77;;;;;;;21.06;50.80;99663.19;4813688;29;97106;-74
2023/07/12 02:27:44;;;;;;;17.67;16.35;;;;;;;20.94;51.04;99665.13;4825765;29;98675;-74
2023/07/12 02:30:16;;;;;;;19.50;16.48;;;;;;;20.87;51.12;99661.28;4818716;29;98452;-74
2023/07/12 02:32:43;;;;;;;17.88;16.38;;;;;;;20.70;51.62;99661.91;4818958;29;96875;-74
2023/07/12 02:35:11;;;;;;;18.77;17.05;;;;;;;20.60;52.02;99659.19;4817776;29;96818;-73
2023/07/12 02:37:36;;;;;;;18.63;17.08;;;;;;;20.72;51.79;99660.78;4818946;29;98647;-74
2023/07/12 02:40:06;;;;;;;17.67;16.27;;;;;;;20.63;51.77;99655.44;4818767;29;97408;-74
2023/07/12 02:42:32;;;;;;;18.05;16.58;;;;;;;20.74;51.81;99664.19;4829764;29;97348;-74
2023/07/12 02:44:57;;;;;;;17.27;15.98;;;;;;;20.55;52.10;99659.59;4827556;29;97057;-75
2023/07/12 02:47:23;;;;;;;18.90;17.33;;;;;;;20.69;51.80;99655.72;4825537;29;98820;-74
2023/07/12 02:49:49;;;;;;;17.50;16.20;;;;;;;20.70;51.92;99661.91;4833098;29;98287;-74
2023/07/12 02:52:15;;;;;;;18.52;16.75;;;;;;;20.69;51.71;99650.41;4835590;29;96840;-74
2023/07/12 02:54:41;;;;;;;17.63;16.00;;;;;;;20.74;51.90;99648.19;4821802;29;97049;-74
2023/07/12 02:57:09;;;;;;;18.48;17.13;;;;;;;20.50;52.69;99644.94;4822381;29;98645;-74
2023/07/12 02:59:34;;;;;;;18.23;16.95;;;;;;;20.57;52.41;99646.13;4821841;29;98293;-74
2023/07/12 03:02:00;;;;;;;18.80;17.38;;;;;;;20.58;52.41;99648.66;4822455;29;96659;-74
2023/07/12 03:04:25;;;;;;;18.33;16.83;;;;;;;20.75;51.84;99641.03;4821687;29;96884;-74
2023/07/12 03:06:51;;;;;;;18.60;17.02;;;;;;;20.70;52.09;99641.41;4821593;29;98946;-74
2023/07/12 03:09:16;;;;;;;18.75;17.27;;;;;;;20.64;52.38;99630.44;4821621;29;97491;-74
2023/07/12 03:11:46;;;;;;;17.88;16.58;;;;;;;20.40;52.86;99628.88;4821824;29;96792;-74
2023/07/12 03:14:15;;;;;;;17.55;16.35;;;;;;;20.27;53.25;99622.91;4822126;29;97058;-74
2023/07/12 03:16:40;;;;;;;18.67;16.80;;;;;;;20.40;53.15;99610.22;4821261;29;99039;-74
2023/07/12 03:19:06;;;;;;;18.63;17.35;;;;;;;20.36;53.18;99603.47;4820620;29;98665;-74
2023/07/12 03:21:31;;;;;;;18.95;17.33;;;;;;;20.28;53.54;99593.47;4834438;29;96611;-74
2023/07/12 03:23:57;;;;;;;18.38;17.00;;;;;;;20.10;53.88;99595.03;4822330;29;96870;-74
2023/07/12 03:26:23;;;;;;;19.35;17.80;;;;;;;20.02;54.12;99589.53;4821292;29;99036;-74
2023/07/12 03:28:48;;;;;;;18.70;17.13;;;;;;;20.29;53.48;99586.31;4821574;29;98294;-74
2023/07/12 03:31:15;;;;;;;19.08;17.60;;;;;;;20.46;53.16;99587.53;4820902;29;96791;-74
2023/07/12 03:33:42;;;;;;;17.25;16.05;;;;;;;20.37;53.34;99585.66;4821126;29;96821;-74
2023/07/12 03:36:08;;;;;;;17.88;16.33;;;;;;;20.22;53.75;99594.00;4816574;29;98840;-73
2023/07/12 03:38:33;;;;;;;19.20;17.52;;;;;;;20.22;53.86;99580.69;4821407;29;98187;-74
2023/07/12 03:41:04;;;;;;;19.13;17.40;;;;;;;20.40;53.34;99596.91;4834373;29;96752;-74
2023/07/12 03:43:31;;;;;;;18.40;16.80;;;;;;;20.28;53.33;99576.66;4832437;29;97155;-74
2023/07/12 03:45:56;;;;;;;16.10;14.90;;;;;;;20.43;53.09;99590.47;4823182;29;98748;-74
2023/07/12 03:48:23;;;;;;;17.13;15.70;;;;;;;20.45;53.27;99575.16;4822049;29;98347;-74
2023/07/12 03:50:51;;;;;;;17.10;15.55;;;;;;;20.55;52.87;99570.75;4820996;29;97085;-74
2023/07/12 03:53:18;;;;;;;17.95;16.52;;;;;;;20.37;53.53;99577.69;4822339;29;97634;-74
2023/07/12 03:55:45;;;;;;;17.95;16.35;;;;;;;20.40;53.52;99577.41;4819911;29;99311;-74
2023/07/12 03:58:13;;;;;;;16.58;14.95;;;;;;;20.45;53.44;99576.03;4820960;29;98592;-74
2023/07/12 04:00:43;;;;;;;17.30;16.08;;;;;;;20.49;53.56;99584.59;4803842;29;97891;-74
2023/07/12 04:03:09;;;;;;;19.20;16.58;;;;;;;20.54;53.45;99571.75;4834307;29;96962;-74
2023/07/12 04:05:36;;;;;;;17.80;16.23;;;;;;;20.57;53.29;99568.81;4820652;29;98698;-74
2023/07/12 04:08:02;;;;;;;18.92;17.40;;;;;;;20.62;53.11;99571.06;4821013;29;98248;-74
2023/07/12 04:10:28;;;;;;;18.63;17.17;;;;;;;20.61;53.01;99575.56;4830153;29;96696;-74
2023/07/12 04:12:53;;;;;;;17.20;15.88;;;;;;;20.62;52.95;99585.22;4824971;29;96904;-74
2023/07/12 04:15:19;;;;;;;18.55;17.15;;;;;;;20.50;53.08;99586.28;4820769;29;98877;-74
2023/07/12 04:17:44;;;;;;;18.83;17.30;;;;;;;20.37;53.67;99596.34;4820918;29;98387;-74
2023/07/12 04:20:10;;;;;;;18.10;16.55;;;;;;;20.42;53.64;99604.75;4833493;29;96978;-74
2023/07/12 04:22:35;;;;;;;18.17;16.70;;;;;;;20.35;53.74;99591.13;4820553;29;96814;-74
2023/07/12 04:25:01;;;;;;;18.25;16.98;;;;;;;20.29;53.92;99575.66;4820300;29;98802;-74
2023/07/12 04:27:26;;;;;;;19.67;18.20;;;;;;;20.21;54.36;99572.81;4829448;29;98859;-74
2023/07/12 04:29:52;;;;;;;19.10;17.40;;;;;;;20.39;53.90;99575.69;4837588;29;96763;-74
2023/07/12 04:32:17;;;;;;;18.15;16.70;;;;;;;20.28;54.32;99582.81;4820996;29;96882;-74
2023/07/12 04:34:43;;;;;;;18.67;17.20;;;;;;;20.31;54.08;99584.38;4819820;29;98678;-74
2023/07/12 04:37:08;;;;;;;18.63;17.23;;;;;;;20.25;54.57;99587.56;4808161;29;98464;-74
2023/07/12 04:39:34;;;;;;;18.15;16.95;;;;;;;20.24;54.67;99581.38;4820198;29;96747;-74
2023/07/12 04:41:59;;;;;;;20.33;18.65;;;;;;;20.32;54.48;99576.22;4820822;29;96900;-74
2023/07/12 04:44:25;;;;;;;18.25;16.80;;;;;;;20.41;54.36;99573.75;4819404;29;99139;-74
2023/07/12 04:46:51;;;;;;;19.08;17.40;;;;;;;20.51;54.13;99583.50;4820058;29;98529;-74
2023/07/12 04:49:16;;;;;;;19.63;17.95;;;;;;;20.63;53.68;99586.09;4820523;29;96887;-74
2023/07/12 04:51:42;;;;;;;19.35;17.88;;;;;;;20.72;53.50;99598.63;4820776;29;97938;-74
2023/07/12 04:54:07;;;;;;;18.75;17.25;;;;;;;20.94;52.89;99601.09;4820086;29;98623;-74
2023/07/12 04:56:33;;;;;;;18.67;17.17;;;;;;;21.19;52.47;99601.56;4819991;29;98381;-74
2023/07/12 04:58:58;;;;;;;19.38;17.67;;;;;;;21.32;52.33;99595.94;4820325;29;96764;-74
2023/07/12 05:01:24;;;;;;;19.33;17.60;;;;;;;21.42;51.96;99599.53;4820510;29;98539;-74
2023/07/12 05:03:49;;;;;;;19.48;17.85;;;;;;;21.55;51.65;99585.88;4819788;29;98733;-74
2023/07/12 05:06:15;;;;;;;27.10;19.15;;;;;;;21.38;52.21;99592.75;4819899;29;98510;-74
2023/07/12 05:08:41;;;;;;;23.95;17.75;;;;;;;21.39;52.45;99591.78;4819805;29;96804;-74
2023/07/12 05:11:07;;;;;;;19.20;17.48;;;;;;;21.64;51.87;99593.94;4818666;29;96979;-74
2023/07/12 05:13:35;;;;;;;20.52;19.02;;;;;;;21.96;51.14;99598.09;4819976;29;98485;-74
2023/07/12 05:16:02;;;;;;;20.30;18.48;;;;;;;22.06;51.30;99595.44;4823554;29;98366;-74
2023/07/12 05:18:27;;;;;;;17.98;16.67;;;;;;;22.30;50.70;99601.16;4820503;29;96600;-74
2023/07/12 05:20:53;;;;;;;17.75;16.08;;;;;;;22.48;50.31;99608.44;4819807;29;97078;-74
2023/07/12 05:23:19;;;;;;;18.90;17.50;;;;;;;22.48;50.57;99611.94;4819641;29;98576;-74
2023/07/12 05:25:51;;;;;;;28.83;18.95;;;;;;;22.42;50.91;99603.66;4819727;29;98489;-74
2023/07/12 05:28:17;;;;;;;21.42;17.08;;;;;;;22.35;51.46;99601.56;4820141;29;96821;-74
2023/07/12 05:30:43;;;;;;;19.70;17.67;;;;;;;22.27;51.65;99579.22;4819445;29;96822;-74
2023/07/12 05:33:09;;;;;;;20.40;18.77;;;;;;;22.35;51.26;99574.00;4819205;29;98874;-74
2023/07/12 05:35:34;;;;;;;19.08;17.35;;;;;;;22.60;50.75;99573.34;4819350;29;98495;-74
2023/07/12 05:38:00;;;;;;;18.60;17.10;;;;;;;22.44;51.19;99580.31;4833960;29;97377;-74
2023/07/12 05:40:25;;;;;;;21.35;17.63;;;;;;;22.64;51.09;99559.69;4819230;29;96833;-74
2023/07/12 05:42:51;;;;;;;19.85;17.90;;;;;;;22.68;51.06;99550.34;4825274;29;98731;-74
2023/07/12 05:45:16;;;;;;;19.80;18.15;;;;;;;22.83;50.64;99552.41;4826411;29;98317;-74
2023/07/12 05:47:45;;;;;;;21.50;18.15;;;;;;;22.83;51.06;99552.41;4833692;29;97575;-74
2023/07/12 05:50:12;;;;;;;18.85;17.15;;;;;;;23.08;50.41;99543.84;4819962;29;96821;-74
2023/07/12 05:52:38;;;;;;;20.75;18.35;;;;;;;23.15;50.67;99548.41;4819249;29;98816;-74
2023/07/12 05:55:06;;;;;;;20.88;18.65;;;;;;;22.99;51.12;99543.75;4819393;29;98410;-75
2023/07/12 05:57:32;;;;;;;18.15;16.77;;;;;;;23.25;50.58;99549.19;4819354;29;96703;-75
2023/07/12 05:59:57;;;;;;;19.83;17.80;;;;;;;23.43;50.52;99543.00;4819222;29;96945;-74
2023/07/12 06:02:23;;;;;;;20.85;18.98;;;;;;;23.30;51.38;99542.53;4818005;29;98622;-74
2023/07/12 06:04:49;;;;;;;19.75;17.50;;;;;;;23.23;51.69;99528.91;4831913;29;98212;-74
2023/07/12 06:07:15;;;;;;;18.92;17.38;;;;;;;23.26;51.78;99521.41;4819853;29;96693;-74
2023/07/12 06:09:41;;;;;;;18.75;17.08;;;;;;;23.81;50.32;99523.09;4816272;29;96795;-74
2023/07/12 06:12:07;;;;;;;21.13;18.80;;;;;;;23.77;50.99;99512.84;4801876;29;98777;-74
2023/07/12 06:14:33;;;;;;;19.75;18.08;;;;;;;23.94;50.71;99501.25;4837855;29;98526;-74
2023/07/12 06:16:58;;;;;;;21.85;19.10;;;;;;;24.02;50.65;99497.75;4826031;29;96677;-75
2023/07/12 06:19:24;;;;;;;21.65;19.83;;;;;;;24.20;50.32;99482.44;4819276;29;97245;-74
2023/07/12 06:21:49;;;;;;;22.38;20.65;;;;;;;24.38;50.19;99485.88;4818102;29;98807;-74
2023/07/12 06:24:15;;;;;;;21.73;19.85;;;;;;;24.57;50.16;99473.25;4834214;29;98395;-74
2023/07/12 06:26:41;;;;;;;21.20;19.58;;;;;;;24.78;49.84;99480.84;4821422;29;96676;-74
2023/07/12 06:29:06;;;;;;;20.85;19.30;;;;;;;24.96;49.34;99478.88;4819005;29;96879;-75
2023/07/12 06:31:32;;;;;;;23.15;21.15;;;;;;;25.21;48.96;99490.50;4818335;29;98835;-74
2023/07/12 06:34:00;;;;;;;21.20;19.25;;;;;;;25.36;48.88;99479.94;4818845;29;98542;-74
2023/07/12 06:36:26;;;;;;;20.42;18.73;;;;;;;25.45;49.00;99476.28;4818497;29;96984;-74
2023/07/12 06:38:52;;;;;;;21.63;19.50;;;;;;;25.48;49.60;99467.88;4819161;29;96805;-74
2023/07/12 06:41:17;;;;;;;20.77;19.25;;;;;;;25.56;48.84;99474.25;4818606;29;98568;-74
2023/07/12 06:43:43;;;;;;;23.63;19.23;;;;;;;25.63;48.67;99481.47;4818416;29;98283;-74
2023/07/12 06:46:09;;;;;;;20.95;19.35;;;;;;;25.58;49.69;99493.72;4818369;29;96680;-75
2023/07/12 06:48:35;;;;;;;22.83;20.65;;;;;;;25.33;50.88;99493.72;4819188;29;96847;-75
2023/07/12 06:51:00;;;;;;;21.63;19.60;;;;;;;25.43;49.99;99491.72;4816006;29;98830;-75
2023/07/12 06:53:26;;;;;;;24.45;20.02;;;;;;;25.24;50.75;99492.88;4828582;29;98232;-75
2023/07/12 06:55:53;;;;;;;20.90;19.42;;;;;;;25.02;50.66;99486.28;4821761;29;96781;-75
2023/07/12 06:58:18;;;;;;;21.38;19.48;;;;;;;24.94;51.13;99486.25;4819291;29;96820;-75
2023/07/12 07:00:44;;;;;;;22.27;20.17;;;;;;;24.68;51.77;99490.91;4817739;29;98663;-75
2023/07/12 07:03:11;;;;;;;22.48;20.73;;;;;;;24.41;52.79;99498.16;4818747;29;98424;-75
2023/07/12 07:05:39;;;;;;;25.08;21.15;;;;;;;24.44;52.89;99494.34;4818696;29;97151;-74
2023/07/12 07:08:05;;;;;;;21.98;20.25;;;;;;;24.27;53.42;99498.75;4818712;29;96864;-74
2023/07/12 07:10:31;;;;;;;22.35;20.45;;;;;;;24.33;53.26;99496.25;4817792;29;98799;-74
2023/07/12 07:12:57;;;;;;;22.70;20.88;;;;;;;24.21;53.79;99497.53;4818075;29;98580;-74
2023/07/12 07:15:23;;;;;;;22.48;20.30;;;;;;;24.27;53.36;99498.75;4818155;29;96992;-74
2023/07/12 07:17:48;;;;;;;26.08;21.58;;;;;;;24.31;53.62;99494.72;4818482;29;96865;-74
2023/07/12 07:20:14;;;;;;;22.38;20.42;;;;;;;24.27;53.94;99491.53;4801451;29;100429;-75
2023/07/12 07:22:39;;;;;;;23.05;20.65;;;;;;;24.27;53.96;99494.22;4818060;29;98328;-74
2023/07/12 07:25:06;;;;;;;22.42;20.13;;;;;;;24.29;53.95;99499.41;4817865;29;96818;-74
2023/07/12 07:27:31;;;;;;;22.77;20.45;;;;;;;24.32;54.30;99510.66;4819090;29;96868;-75
2023/07/12 07:29:57;;;;;;;23.88;21.45;;;;;;;24.18;54.33;99511.25;4817386;29;98826;-74
2023/07/12 07:32:22;;;;;;;23.85;20.50;;;;;;;24.23;54.06;99517.00;4816232;29;98598;-74
2023/07/12 07:34:48;;;;;;;21.17;19.70;;;;;;;24.27;53.14;99515.66;4819219;29;96956;-74
2023/07/12 07:37:13;;;;;;;23.42;20.13;;;;;;;24.28;53.47;99519.19;4820821;29;96834;-75
2023/07/12 07:39:39;;;;;;;23.05;21.15;;;;;;;24.30;53.91;99536.78;4821235;29;98587;-74
2023/07/12 07:42:05;;;;;;;22.05;19.88;;;;;;;24.30;53.90;99549.38;4820640;29;98453;-74
2023/07/12 07:44:30;;;;;;;25.67;21.65;;;;;;;24.13;54.99;99562.66;4821105;29;96926;-74
2023/07/12 07:46:56;;;;;;;22.10;19.85;;;;;;;24.08;54.99;99564.97;4821121;29;96985;-74
2023/07/12 07:49:21;;;;;;;27.70;20.15;;;;;;;24.12;54.94;99573.56;4821077;29;99362;-73
2023/07/12 07:51:47;;;;;;;21.98;20.15;;;;;;;24.07;54.83;99590.09;4824122;29;98434;-74
2023/07/12 07:54:13;;;;;;;26.58;20.88;;;;;;;24.17;54.84;99601.59;4825263;29;98756;-74
2023/07/12 07:56:39;;;;;;;22.50;20.13;;;;;;;24.10;56.26;99600.50;4819700;29;97147;-74
2023/07/12 07:59:06;;;;;;;21.85;19.80;;;;;;;24.15;56.19;99606.25;4819842;29;98802;-74
2023/07/12 08:01:32;;;;;;;29.13;21.95;;;;;;;24.31;55.74;99621.59;4820932;29;100230;-71
2023/07/12 08:03:57;;;;;;;22.83;20.77;;;;;;;24.51;55.79;99627.63;4820554;29;97496;-74
2023/07/12 08:06:23;;;;;;;22.45;20.33;;;;;;;24.71;55.39;99622.88;4821062;29;96986;-74
2023/07/12 08:08:49;;;;;;;24.00;21.48;;;;;;;24.84;55.36;99623.28;4820072;29;98645;-74
2023/07/12 08:11:15;;;;;;;24.30;22.13;;;;;;;25.01;55.99;99620.66;4821038;29;98318;-73
2023/07/12 08:13:41;;;;;;;23.58;21.42;;;;;;;25.19;54.64;99621.44;4820648;29;96613;-73
2023/07/12 08:16:07;;;;;;;24.75;22.70;;;;;;;25.27;54.65;99618.75;4821379;29;96865;-73
2023/07/12 08:18:33;;;;;;;26.40;23.70;;;;;;;25.38;54.59;99617.63;4817903;29;98660;-74
2023/07/12 08:20:59;;;;;;;25.98;23.27;;;;;;;25.24;55.05;99616.41;4820757;29;98544;-74
2023/07/12 08:23:24;;;;;;;24.17;21.93;;;;;;;25.65;54.17;99629.06;4819886;29;97920;-68
2023/07/12 08:25:51;;;;;;;24.15;22.08;;;;;;;25.77;53.60;99633.13;4820032;29;96854;-68
2023/07/12 08:28:17;;;;;;;23.80;21.90;;;;;;;25.64;53.41;99636.31;4820410;29;98689;-67
2023/07/12 08:30:43;;;;;;;23.88;21.38;;;;;;;25.93;52.98;99627.78;4819116;29;97579;-68
2023/07/12 08:33:09;;;;;;;23.83;21.80;;;;;;;26.49;51.31;99627.06;4818590;29;97179;-68
2023/07/12 08:35:34;;;;;;;23.02;21.08;;;;;;;26.40;51.54;99620.84;4818792;29;96852;-68
2023/07/12 08:38:00;;;;;;;23.33;21.33;;;;;;;26.40;51.41;99624.38;4819613;29;98788;-68
2023/07/12 08:40:26;;;;;;;23.02;20.98;;;;;;;26.69;51.02;99624.84;4820995;29;98440;-68
2023/07/12 08:42:52;;;;;;;23.38;21.30;;;;;;;26.77;50.75;99631.06;4804207;29;96741;-67
2023/07/12 08:45:23;;;;;;;24.20;22.10;;;;;;;26.28;51.60;99641.88;4820422;29;96852;-67
2023/07/12 08:47:51;;;;;;;25.60;22.73;;;;;;;25.96;52.72;99638.22;4820000;29;98678;-68
2023/07/12 08:50:17;;;;;;;24.77;22.25;;;;;;;25.91;53.05;99642.41;4826675;29;98592;-67
2023/07/12 08:52:44;;;;;;;23.90;21.90;;;;;;;25.97;52.97;99630.97;4820661;29;97311;-68
2023/07/12 08:55:19;;;;;;;24.08;22.23;;;;;;;25.91;53.72;99632.50;4800296;29;96850;-68
2023/07/12 08:57:54;;;;;;;27.15;21.65;;;;;;;25.91;53.77;99645.94;4805245;29;98713;-68
2023/07/12 09:00:22;;;;;;;24.15;22.08;;;;;;;25.97;54.23;99642.56;4826252;29;98408;-68
2023/07/12 09:02:48;;;;;;;25.70;22.98;;;;;;;25.50;56.05;99637.78;4811909;29;97143;-70
2023/07/12 09:05:17;;;;;;;25.15;22.77;;;;;;;25.30;56.70;99647.13;4822841;29;97191;-70
2023/07/12 09:07:54;;;;;;;25.75;23.73;;;;;;;25.07;57.40;99638.78;4836458;29;99183;-69
2023/07/12 09:10:48;;;;;;;25.50;23.13;;;;;;;25.02;57.67;99633.09;4822205;29;100433;-69
2023/07/12 09:13:15;;;;;;;25.17;23.05;;;;;;;25.00;57.87;99627.88;4822544;29;97343;-67
2023/07/12 09:15:48;;;;;;;26.33;23.67;;;;;;;24.93;57.51;99634.03;4824743;29;96912;-67
2023/07/12 09:18:37;;;;;;;25.50;23.05;;;;;;;24.93;56.43;99639.41;4823577;29;98725;-67
2023/07/12 09:21:36;;;;;;;24.90;22.88;;;;;;;24.80;56.79;99643.38;4807866;29;98280;-67
2023/07/12 09:24:08;;;;;;;24.58;22.50;;;;;;;24.85;56.33;99643.75;4793516;29;97476;-68
2023/07/12 09:26:34;;;;;;;23.83;21.80;;;;;;;24.87;56.54;99640.06;4832479;29;96808;-69
2023/07/12 09:29:18;;;;;;;24.52;22.35;;;;;;;24.98;56.41;99655.88;4817555;29;97789;-68
2023/07/12 09:31:45;;;;;;;25.50;23.30;;;;;;;24.93;55.88;99645.66;4811339;29;98920;-69
2023/07/12 09:34:22;;;;;;;24.63;22.40;;;;;;;24.87;56.65;99665.06;4800306;29;98192;-68
2023/07/12 09:36:57;;;;;;;24.58;22.48;;;;;;;24.82;57.16;99665.53;4829075;29;97034;-67
2023/07/12 09:39:23;;;;;;;23.90;21.85;;;;;;;24.97;55.97;99665.78;4816814;29;98589;-68
2023/07/12 09:41:50;;;;;;;24.45;22.45;;;;;;;24.98;56.13;99654.03;4817759;29;98277;-68
2023/07/12 09:44:16;;;;;;;25.98;23.40;;;;;;;25.10;56.34;99651.91;4819310;29;96699;-68
2023/07/12 09:47:01;;;;;;;24.08;21.98;;;;;;;25.28;55.57;99647.31;4798268;29;98259;-71
2023/07/12 09:49:41;;;;;;;24.02;21.77;;;;;;;25.53;53.99;99650.88;4814791;29;99154;-67
2023/07/12 09:52:44;;;;;;;23.77;22.02;;;;;;;25.68;53.76;99644.88;4798523;29;98498;-68
2023/07/12 09:55:16;;;;;;;23.58;21.80;;;;;;;25.89;53.71;99645.28;4826958;29;97391;-68
2023/07/12 09:58:04;;;;;;;24.30;22.60;;;;;;;26.54;52.35;99652.47;4800272;29;97103;-66
2023/07/12 10:00:31;;;;;;;23.67;21.65;;;;;;;27.00;51.60;99657.22;4816744;29;98683;-71
2023/07/12 10:03:10;;;;;;;22.98;21.38;;;;;;;27.42;50.59;99650.66;4816109;29;97334;-65
2023/07/12 10:05:37;;;;;;;24.42;22.40;;;;;;;27.28;51.22;99649.53;4815633;29;97197;-65
2023/07/12 10:08:09;;;;;;;24.02;22.23;;;;;;;27.44;50.61;99632.47;4799041;29;96897;-66
2023/07/12 10:10:41;;;;;;;23.55;21.80;;;;;;;27.84;50.26;99649.38;4817297;29;98924;-65
2023/07/12 10:13:17;;;;;;;24.15;22.52;;;;;;;28.42;48.79;99653.28;4830814;29;98438;-66
2023/07/12 10:15:44;;;;;;;23.23;21.52;;;;;;;28.86;47.75;99647.13;4817477;29;96752;-65
2023/07/12 10:18:22;;;;;;;23.90;21.67;;;;;;;28.75;47.02;99653.81;4844584;29;97429;-65
2023/07/12 10:20:48;;;;;;;23.65;21.40;;;;;;;28.90;47.03;99656.50;4815998;29;99069;-66
2023/07/12 10:23:16;;;;;;;23.17;21.60;;;;;;;29.21;46.52;99655.50;4817396;29;97340;-79
2023/07/12 10:25:46;;;;;;;22.95;20.75;;;;;;;29.26;46.39;99645.75;4809372;29;96694;-74
2023/07/12 10:28:11;;;;;;;24.20;22.05;;;;;;;28.61;47.42;99658.16;4819712;29;97003;-78
2023/07/12 10:30:38;;;;;;;24.55;22.48;;;;;;;28.54;47.83;99643.75;4816294;29;98917;-71
2023/07/12 10:33:13;;;;;;;23.20;21.40;;;;;;;28.78;47.33;99639.09;4838234;29;98788;-69
2023/07/12 10:35:44;;;;;;;22.90;20.88;;;;;;;28.45;46.90;99636.78;4819528;29;96698;-70
2023/07/12 10:38:18;;;;;;;23.38;21.63;;;;;;;28.37;47.18;99636.81;4799502;29;97053;-70
2023/07/12 10:40:48;;;;;;;23.17;21.35;;;;;;;28.41;46.58;99632.72;4814122;29;98757;-71
2023/07/12 10:43:31;;;;;;;22.80;20.98;;;;;;;28.52;46.44;99626.91;4796329;29;98495;-71
2023/07/12 10:46:03;;;;;;;22.50;20.90;;;;;;;28.63;46.15;99612.94;4814959;29;97136;-71
2023/07/12 10:48:29;;;;;;;21.83;19.98;;;;;;;28.45;46.14;99623.28;4817115;29;97137;-71
2023/07/12 10:51:16;;;;;;;23.00;21.10;;;;;;;28.75;45.97;99612.47;4816308;29;99035;-71
2023/07/12 10:53:53;;;;;;;22.50;20.85;;;;;;;28.77;45.23;99624.78;4816576;29;98612;-71
2023/07/12 10:56:38;;;;;;;22.40;20.42;;;;;;;28.84;45.08;99619.44;4815281;29;98062;-70
2023/07/12 10:59:32;;;;;;;21.70;20.30;;;;;;;29.11;44.90;99612.53;4801837;29;96785;-70
2023/07/12 11:02:04;;;;;;;22.92;21.13;;;;;;;28.88;44.91;99602.66;4818225;29;98749;-70
2023/07/12 11:04:29;;;;;;;23.35;21.67;;;;;;;28.81;44.60;99596.34;4818652;29;98508;-70
2023/07/12 11:07:25;;;;;;;22.38;20.75;;;;;;;29.14;44.30;99589.72;4817550;29;96885;-70
2023/07/12 11:09:50;;;;;;;22.70;20.85;;;;;;;29.11;44.25;99588.22;4819452;29;96854;-70
2023/07/12 11:12:18;;;;;;;22.67;20.80;;;;;;;29.04;44.10;99582.75;4804825;29;98686;-69
2023/07/12 11:14:53;;;;;;;21.98;20.50;;;;;;;29.17;44.28;99578.53;4822132;29;98276;-84
2023/07/12 11:17:28;;;;;;;23.20;21.17;;;;;;;29.36;43.81;99590.59;4804875;29;98730;-84
2023/07/12 11:20:08;;;;;;;23.65;21.75;;;;;;;29.13;44.03;99586.19;4818606;29;97135;-85
2023/07/12 11:22:54;;;;;;;22.83;21.03;;;;;;;29.14;44.18;99592.41;4817334;29;99245;-86